createdAt,value
2019-05-15T00:02:10.965Z,17.40
2019-05-15T00:04:39.365Z,19.60
2019-05-15T00:07:08.943Z,16.93
2019-05-15T00:09:41.769Z,15.30
2019-05-15T00:12:08.594Z,16.25
2019-05-15T00:14:38.857Z,21.15
2019-05-15T00:17:08.277Z,20.48
2019-05-15T00:19:38.903Z,14.25
2019-05-15T00:22:08.622Z,22.17
2019-05-15T00:24:38.195Z,24.70
2019-05-15T00:27:08.176Z,22.15
2019-05-15T00:29:38.372Z,24.87
2019-05-15T00:32:09.129Z,19.50
2019-05-15T00:34:38.352Z,16.85
2019-05-15T00:37:09.057Z,26.85
2019-05-15T00:39:39.042Z,14.13
2019-05-15T00:42:08.652Z,19.42
2019-05-15T00:44:38.686Z,23.50
2019-05-15T00:47:10.536Z,26.35
2019-05-15T00:49:38.415Z,23.80
2019-05-15T00:52:11.807Z,23.42
2019-05-15T00:54:38.886Z,19.73
2019-05-15T00:57:08.554Z,23.87
2019-05-15T00:59:38.986Z,23.32
2019-05-15T01:02:08.692Z,21.35
2019-05-15T01:04:38.893Z,20.90
2019-05-15T01:07:08.430Z,21.65
2019-05-15T01:09:38.509Z,23.95
2019-05-15T01:12:09.047Z,11.85
2019-05-15T01:14:38.600Z,20.88
2019-05-15T01:17:09.128Z,21.30
2019-05-15T01:19:38.297Z,15.28
2019-05-15T01:22:08.764Z,19.85
2019-05-15T01:24:38.907Z,18.82
2019-05-15T01:27:10.453Z,20.43
2019-05-15T01:29:44.675Z,24.98
2019-05-15T01:32:10.020Z,17.85
2019-05-15T01:34:39.004Z,17.75
2019-05-15T01:37:08.666Z,19.42
2019-05-15T01:39:38.532Z,24.12
2019-05-15T01:42:08.362Z,23.32
2019-05-15T01:44:38.947Z,22.48
2019-05-15T01:47:08.559Z,18.80
2019-05-15T01:49:38.379Z,11.48
2019-05-15T01:52:08.027Z,11.10
2019-05-15T01:54:38.327Z,12.90
2019-05-15T01:57:09.392Z,11.12
2019-05-15T01:59:40.190Z,12.23
2019-05-15T02:02:09.611Z,22.25
2019-05-15T02:04:39.324Z,14.95
2019-05-15T02:07:08.415Z,9.43
2019-05-15T02:09:38.557Z,16.87
2019-05-15T02:12:08.716Z,15.78
2019-05-15T02:14:39.267Z,13.45
2019-05-15T02:17:08.555Z,11.80
2019-05-15T02:19:39.217Z,21.07
2019-05-15T02:22:08.422Z,16.27
2019-05-15T02:24:39.085Z,15.80
2019-05-15T02:27:09.044Z,13.45
2019-05-15T02:29:38.325Z,15.15
2019-05-15T02:32:10.206Z,13.35
2019-05-15T02:34:39.605Z,22.02
2019-05-15T02:37:08.989Z,27.52
2019-05-15T02:39:39.028Z,25.40
2019-05-15T02:42:09.913Z,12.80
2019-05-15T02:44:40.119Z,15.48
2019-05-15T02:47:09.374Z,16.25
2019-05-15T02:49:39.670Z,18.80
2019-05-15T02:52:09.763Z,24.67
2019-05-15T02:54:40.062Z,16.85
2019-05-15T02:57:09.943Z,23.05
2019-05-15T02:59:39.785Z,22.48
2019-05-15T03:02:10.218Z,19.52
2019-05-15T03:04:40.227Z,28.12
2019-05-15T03:07:09.743Z,21.80
2019-05-15T03:09:39.972Z,14.78
2019-05-15T03:12:09.196Z,12.07
2019-05-15T03:14:39.920Z,14.35
2019-05-15T03:17:09.812Z,12.23
2019-05-15T03:19:39.451Z,15.48
2019-05-15T03:22:09.698Z,12.47
2019-05-15T03:24:39.632Z,11.65
2019-05-15T03:27:09.259Z,16.82
2019-05-15T03:29:40.398Z,13.13
2019-05-15T03:32:24.398Z,18.57
2019-05-15T03:34:46.882Z,16.97
2019-05-15T03:37:12.096Z,16.65
2019-05-15T03:39:40.692Z,15.90
2019-05-15T03:42:09.717Z,18.00
2019-05-15T03:44:39.465Z,13.83
2019-05-15T03:47:09.223Z,18.50
2019-05-15T03:49:39.762Z,16.02
2019-05-15T03:52:09.954Z,14.55
2019-05-15T03:54:39.567Z,12.73
2019-05-15T03:57:09.863Z,16.48
2019-05-15T03:59:39.879Z,18.67
2019-05-15T04:02:09.065Z,18.67
2019-05-15T04:04:38.926Z,12.88
2019-05-15T04:07:09.238Z,18.90
2019-05-15T04:09:38.746Z,23.77
2019-05-15T04:12:09.418Z,13.80
2019-05-15T04:14:39.520Z,15.05
2019-05-15T04:17:09.188Z,22.22
2019-05-15T04:19:39.123Z,27.32
2019-05-15T04:22:09.203Z,28.95
2019-05-15T04:24:39.685Z,25.88
2019-05-15T04:27:10.486Z,15.53
2019-05-15T04:29:39.943Z,14.23
2019-05-15T04:32:10.686Z,24.20
2019-05-15T04:34:39.818Z,19.73
2019-05-15T04:37:09.496Z,13.45
2019-05-15T04:39:39.966Z,21.45
2019-05-15T04:42:09.194Z,13.58
2019-05-15T04:44:39.538Z,14.80
2019-05-15T04:47:09.618Z,13.98
2019-05-15T04:49:39.867Z,12.30
2019-05-15T04:52:10.165Z,14.15
2019-05-15T04:54:40.140Z,12.15
2019-05-15T04:57:09.508Z,12.98
2019-05-15T04:59:39.192Z,20.25
2019-05-15T05:02:17.043Z,17.10
2019-05-15T05:04:38.940Z,14.60
2019-05-15T05:07:09.387Z,27.75
2019-05-15T05:09:39.042Z,14.87
2019-05-15T05:12:08.530Z,15.48
2019-05-15T05:14:39.081Z,22.67
2019-05-15T05:17:09.089Z,17.02
2019-05-15T05:19:40.214Z,19.92
2019-05-15T05:22:09.050Z,19.02
2019-05-15T05:24:38.513Z,16.23
2019-05-15T05:27:08.731Z,20.43
2019-05-15T05:29:38.648Z,17.20
2019-05-15T05:32:09.160Z,19.55
2019-05-15T05:34:39.221Z,21.42
2019-05-15T05:37:08.256Z,23.00
2019-05-15T05:39:39.281Z,21.57
2019-05-15T05:42:07.971Z,19.17
2019-05-15T05:44:38.368Z,20.68
2019-05-15T05:47:09.303Z,27.32
2019-05-15T05:49:38.333Z,21.12
2019-05-15T05:52:08.369Z,29.57
2019-05-15T05:54:38.302Z,21.50
2019-05-15T05:57:09.119Z,20.37
2019-05-15T05:59:38.681Z,19.92
2019-05-15T06:02:08.289Z,30.65
2019-05-15T06:04:38.471Z,21.65
2019-05-15T06:07:13.227Z,21.62
2019-05-15T06:09:38.244Z,24.25
2019-05-15T06:12:07.796Z,30.20
2019-05-15T06:14:38.046Z,31.20
2019-05-15T06:17:08.413Z,20.52
2019-05-15T06:19:38.587Z,25.00
2019-05-15T06:22:08.768Z,20.92
2019-05-15T06:24:38.067Z,23.70
2019-05-15T06:27:08.242Z,25.40
2019-05-15T06:29:37.846Z,21.75
2019-05-15T06:32:08.001Z,26.55
2019-05-15T06:34:37.964Z,24.35
2019-05-15T06:37:08.352Z,25.08
2019-05-15T06:39:39.048Z,21.12
2019-05-15T06:42:08.817Z,25.17
2019-05-15T06:44:38.784Z,24.20
2019-05-15T06:47:08.269Z,28.70
2019-05-15T06:49:37.994Z,25.08
2019-05-15T06:52:08.805Z,24.10
2019-05-15T06:54:37.884Z,21.30
2019-05-15T06:57:09.062Z,21.02
2019-05-15T06:59:38.887Z,19.45
2019-05-15T07:02:08.313Z,23.05
2019-05-15T07:04:38.441Z,21.80
2019-05-15T07:07:10.922Z,20.17
2019-05-15T07:09:38.457Z,19.32
2019-05-15T07:12:08.022Z,17.32
2019-05-15T07:14:38.019Z,17.52
2019-05-15T07:17:09.079Z,14.30
2019-05-15T07:19:39.244Z,18.35
2019-05-15T07:22:09.362Z,16.52
2019-05-15T07:24:38.574Z,15.53
2019-05-15T07:27:08.016Z,17.20
2019-05-15T07:29:38.606Z,16.95
2019-05-15T07:32:08.120Z,18.20
2019-05-15T07:34:37.826Z,16.50
2019-05-15T07:37:09.652Z,16.57
2019-05-15T07:39:38.157Z,18.57
2019-05-15T07:42:08.618Z,16.57
2019-05-15T07:44:38.881Z,16.02
2019-05-15T07:47:08.878Z,16.82
2019-05-15T07:49:38.882Z,15.15
2019-05-15T07:52:08.637Z,18.65
2019-05-15T07:54:38.302Z,17.37
2019-05-15T07:57:08.978Z,15.53
2019-05-15T07:59:38.705Z,16.20
2019-05-15T08:02:08.435Z,15.65
2019-05-15T08:04:38.316Z,16.93
2019-05-15T08:07:09.116Z,14.30
2019-05-15T08:09:39.065Z,15.08
2019-05-15T08:12:08.426Z,15.75
2019-05-15T08:14:38.794Z,15.68
2019-05-15T08:17:08.684Z,14.00
2019-05-15T08:19:38.397Z,14.95
2019-05-15T08:22:08.893Z,16.67
2019-05-15T08:24:39.139Z,19.45
2019-05-15T08:27:08.585Z,16.73
2019-05-15T08:29:38.329Z,17.12
2019-05-15T08:32:08.461Z,19.45
2019-05-15T08:34:38.700Z,15.03
2019-05-15T08:37:08.029Z,16.77
2019-05-15T08:39:38.180Z,18.27
2019-05-15T08:42:07.955Z,15.48
2019-05-15T08:44:38.638Z,15.08
2019-05-15T08:47:08.226Z,14.80
2019-05-15T08:49:41.004Z,15.35
2019-05-15T08:52:10.129Z,15.93
2019-05-15T08:54:38.605Z,15.98
2019-05-15T08:57:08.506Z,15.08
2019-05-15T08:59:38.135Z,14.00
2019-05-15T09:02:07.864Z,19.10
2019-05-15T09:04:38.729Z,15.93
2019-05-15T09:07:09.243Z,17.40
2019-05-15T09:09:38.424Z,21.65
2019-05-15T09:12:08.300Z,15.60
2019-05-15T09:14:38.079Z,16.90
2019-05-15T09:17:08.684Z,18.67
2019-05-15T09:19:38.773Z,17.25
2019-05-15T09:22:09.125Z,17.90
2019-05-15T09:24:38.382Z,17.23
2019-05-15T09:27:10.049Z,15.65
2019-05-15T09:29:38.187Z,15.32
2019-05-15T09:32:08.616Z,15.98
2019-05-15T09:34:48.105Z,14.90
2019-05-15T09:37:08.693Z,16.48
2019-05-15T09:39:38.106Z,14.47
2019-05-15T09:42:08.486Z,19.05
2019-05-15T09:44:39.164Z,18.15
2019-05-15T09:47:09.160Z,14.75
2019-05-15T09:49:39.103Z,16.82
2019-05-15T09:52:09.028Z,16.62
2019-05-15T09:54:38.865Z,18.12
2019-05-15T09:57:10.578Z,15.63
2019-05-15T09:59:39.125Z,18.32
2019-05-15T10:02:09.211Z,16.50
2019-05-15T10:04:39.054Z,16.00
2019-05-15T10:07:08.347Z,16.82
2019-05-15T10:09:38.927Z,14.53
2019-05-15T10:12:09.297Z,19.07
2019-05-15T10:14:38.690Z,14.78
2019-05-15T10:17:09.196Z,18.90
2019-05-15T10:19:38.312Z,19.37
2019-05-15T10:22:09.632Z,18.20
2019-05-15T10:24:37.851Z,17.48
2019-05-15T10:27:08.781Z,20.23
2019-05-15T10:29:38.765Z,16.67
2019-05-15T10:32:08.639Z,16.73
2019-05-15T10:34:38.782Z,16.02
2019-05-15T10:37:08.444Z,18.95
2019-05-15T10:39:38.442Z,16.25
2019-05-15T10:42:08.216Z,14.78
2019-05-15T10:44:39.212Z,13.93
2019-05-15T10:47:08.836Z,16.00
2019-05-15T10:49:38.971Z,14.63
2019-05-15T10:52:08.689Z,15.32
2019-05-15T10:54:38.699Z,14.45
2019-05-15T10:57:08.600Z,12.93
2019-05-15T10:59:37.985Z,14.63
2019-05-15T11:02:08.574Z,16.27
2019-05-15T11:04:39.272Z,14.40
2019-05-15T11:07:09.852Z,13.62
2019-05-15T11:09:40.636Z,12.78
2019-05-15T11:12:09.472Z,13.78
2019-05-15T11:14:38.458Z,14.83
2019-05-15T11:17:07.431Z,13.78
2019-05-15T11:19:40.298Z,13.65
2019-05-15T11:22:09.041Z,13.75
2019-05-15T11:24:38.555Z,15.23
2019-05-15T11:27:10.066Z,17.30
2019-05-15T11:29:38.351Z,14.83
2019-05-15T11:32:08.819Z,14.75
2019-05-15T11:34:38.343Z,16.42
2019-05-15T11:37:07.436Z,17.37
2019-05-15T11:39:44.488Z,18.25
2019-05-15T11:42:08.910Z,14.85
2019-05-15T11:44:38.846Z,15.13
2019-05-15T11:47:08.051Z,15.43
2019-05-15T11:49:38.394Z,13.60
2019-05-15T11:52:08.750Z,16.80
2019-05-15T11:54:38.585Z,15.58
2019-05-15T11:57:08.569Z,15.98
2019-05-15T11:59:45.128Z,20.92
2019-05-15T12:02:08.611Z,17.10
2019-05-15T12:04:38.323Z,18.60
2019-05-15T12:07:08.724Z,18.57
2019-05-15T12:09:38.711Z,17.70
2019-05-15T12:12:08.833Z,15.15
2019-05-15T12:14:38.873Z,16.42
2019-05-15T12:17:15.092Z,15.32
2019-05-15T12:19:39.207Z,16.93
2019-05-15T12:22:11.626Z,17.00
2019-05-15T12:24:41.485Z,16.00
2019-05-15T12:27:17.768Z,14.90
2019-05-15T12:29:41.318Z,15.68
2019-05-15T12:34:40.841Z,17.90
2019-05-15T12:37:10.111Z,12.85
2019-05-15T12:39:40.861Z,13.22
2019-05-15T12:59:44.817Z,15.13
2019-05-15T13:02:14.010Z,14.18
2019-05-15T13:04:42.926Z,12.43
2019-05-15T13:07:16.410Z,16.70
2019-05-15T13:09:42.607Z,15.68
2019-05-15T13:12:11.557Z,15.05
2019-05-15T13:14:40.467Z,16.57
2019-05-15T13:17:09.447Z,14.45
2019-05-15T13:19:38.921Z,14.85
2019-05-15T13:22:17.557Z,15.10
2019-05-15T13:24:38.769Z,15.00
2019-05-15T13:27:07.883Z,14.73
2019-05-15T13:29:36.850Z,13.43
2019-05-15T13:32:07.899Z,16.17
2019-05-15T13:34:38.750Z,16.20
2019-05-15T13:37:08.853Z,15.72
2019-05-15T13:39:39.063Z,17.65
2019-05-15T13:42:09.363Z,15.25
2019-05-15T13:44:38.747Z,14.43
2019-05-15T13:47:08.696Z,16.12
2019-05-15T13:49:38.664Z,16.15
2019-05-15T13:52:08.556Z,16.07
2019-05-15T13:54:38.521Z,16.10
2019-05-15T13:57:08.761Z,19.48
2019-05-15T13:59:39.173Z,19.98
2019-05-15T14:02:08.598Z,14.93
2019-05-15T14:04:38.683Z,17.23
2019-05-15T14:07:08.525Z,16.00
2019-05-15T14:09:44.231Z,16.80
2019-05-15T14:12:12.485Z,15.00
2019-05-15T14:14:41.301Z,18.55
2019-05-15T14:17:10.231Z,18.32
2019-05-15T14:19:39.152Z,18.87
2019-05-15T14:22:08.191Z,18.90
2019-05-15T14:24:38.257Z,19.95
2019-05-15T14:27:08.625Z,15.10
2019-05-15T14:29:37.927Z,16.37
2019-05-15T14:32:08.175Z,17.55
2019-05-15T14:34:38.063Z,14.83
2019-05-15T14:37:08.772Z,16.73
2019-05-15T14:39:38.146Z,16.20
2019-05-15T14:42:09.072Z,18.48
2019-05-15T14:44:38.716Z,20.17
2019-05-15T14:47:08.830Z,21.75
2019-05-15T14:49:44.563Z,14.50
2019-05-15T14:52:10.706Z,14.68
2019-05-15T14:54:40.491Z,15.38
2019-05-15T14:57:09.725Z,15.93
2019-05-15T14:59:38.673Z,14.83
2019-05-15T15:02:09.129Z,17.82
2019-05-15T15:04:39.234Z,16.50
2019-05-15T15:07:08.818Z,17.48
2019-05-15T15:09:38.023Z,16.30
2019-05-15T15:12:08.173Z,16.73
2019-05-15T15:14:37.877Z,15.03
2019-05-15T15:17:07.042Z,18.00
2019-05-15T15:19:38.662Z,14.58
2019-05-15T15:22:08.722Z,16.32
2019-05-15T15:24:38.961Z,15.32
2019-05-15T15:27:08.287Z,15.53
2019-05-15T15:29:38.893Z,16.57
2019-05-15T15:32:08.097Z,18.67
2019-05-15T15:34:38.769Z,19.12
2019-05-15T15:37:08.329Z,17.23
2019-05-15T15:39:38.665Z,18.65
2019-05-15T15:42:08.594Z,17.55
2019-05-15T15:44:38.069Z,16.15
2019-05-15T15:47:19.268Z,17.02
2019-05-15T15:49:48.801Z,19.37
2019-05-15T15:52:18.165Z,16.55
2019-05-15T15:54:47.242Z,15.78
2019-05-15T15:57:19.022Z,15.68
2019-05-15T15:59:48.979Z,13.08
2019-05-15T16:02:18.682Z,16.00
2019-05-15T16:04:48.408Z,15.35
2019-05-15T16:07:17.837Z,14.28
2019-05-15T16:09:48.330Z,14.93
2019-05-15T16:12:18.602Z,19.02
2019-05-15T16:14:48.854Z,18.15
2019-05-15T16:17:18.206Z,14.45
2019-05-15T16:19:49.111Z,19.95
2019-05-15T16:22:19.021Z,16.15
2019-05-15T16:24:49.178Z,17.77
2019-05-15T16:27:18.391Z,15.72
2019-05-15T16:29:47.310Z,16.32
2019-05-15T16:32:19.313Z,15.10
2019-05-15T16:34:47.915Z,14.05
2019-05-15T16:37:18.769Z,15.23
2019-05-15T16:39:48.803Z,16.77
2019-05-15T16:42:18.196Z,15.38
2019-05-15T16:44:49.015Z,13.08
2019-05-15T16:47:18.614Z,12.15
2019-05-15T16:49:48.520Z,14.00
2019-05-15T16:52:18.177Z,12.90
2019-05-15T16:54:49.038Z,13.95
2019-05-15T16:57:18.545Z,12.78
2019-05-15T16:59:48.069Z,19.02
2019-05-15T17:02:18.774Z,15.32
2019-05-15T17:04:48.885Z,10.95
2019-05-15T17:07:18.306Z,14.25
2019-05-15T17:09:48.090Z,14.80
2019-05-15T17:12:17.323Z,13.10
2019-05-15T17:14:48.464Z,9.95
2019-05-15T17:17:18.333Z,9.53
2019-05-15T17:19:48.515Z,9.58
2019-05-15T17:22:18.551Z,10.35
2019-05-15T17:24:48.802Z,9.90
2019-05-15T17:27:18.635Z,8.65
2019-05-15T17:29:49.034Z,9.40
2019-05-15T17:32:18.526Z,10.35
2019-05-15T17:34:48.836Z,9.18
2019-05-15T17:37:18.267Z,9.05
2019-05-15T17:39:48.515Z,9.28
2019-05-15T17:42:18.205Z,10.08
2019-05-15T17:44:48.765Z,9.88
2019-05-15T17:47:17.861Z,8.73
2019-05-15T17:49:48.166Z,10.10
2019-05-15T17:52:18.319Z,10.45
2019-05-15T17:54:49.130Z,11.95
2019-05-15T17:57:19.449Z,12.00
2019-05-15T17:59:48.708Z,13.22
2019-05-15T18:02:18.975Z,9.70
2019-05-15T18:04:48.118Z,15.05
2019-05-15T18:07:17.104Z,12.35
2019-05-15T18:09:51.589Z,13.45
2019-05-15T18:12:17.013Z,16.97
2019-05-15T18:14:47.679Z,16.05
2019-05-15T18:17:18.713Z,17.05
2019-05-15T18:19:48.679Z,16.00
2019-05-15T18:22:18.105Z,21.05
2019-05-15T18:24:48.515Z,20.00
2019-05-15T18:27:18.575Z,21.65
2019-05-15T18:29:48.107Z,22.02
2019-05-15T18:32:18.916Z,23.40
2019-05-15T18:34:48.898Z,23.00
2019-05-15T18:37:19.139Z,22.27
2019-05-15T18:40:02.237Z,26.45
2019-05-15T18:42:19.098Z,28.27
2019-05-15T18:44:48.300Z,24.57
2019-05-15T18:47:18.841Z,28.73
2019-05-15T18:50:03.382Z,25.90
2019-05-15T18:52:18.715Z,30.08
2019-05-15T18:54:48.166Z,28.73
2019-05-15T18:57:18.704Z,30.92
2019-05-15T18:59:48.681Z,25.97
2019-05-15T19:02:19.190Z,30.70
2019-05-15T19:04:49.348Z,25.90
2019-05-15T19:07:18.972Z,24.72
2019-05-15T19:09:48.985Z,29.32
2019-05-15T19:12:18.058Z,29.75
2019-05-15T19:14:49.345Z,24.15
2019-05-15T19:17:18.815Z,28.38
2019-05-15T19:19:48.263Z,21.60
2019-05-15T19:22:19.274Z,24.70
2019-05-15T19:24:49.022Z,25.25
2019-05-15T19:27:18.721Z,26.73
2019-05-15T19:29:48.333Z,24.60
2019-05-15T19:32:17.737Z,34.38
2019-05-15T19:34:48.330Z,26.42
2019-05-15T19:37:18.374Z,32.90
2019-05-15T19:39:47.959Z,29.98
2019-05-15T19:42:18.263Z,31.87
2019-05-15T19:44:48.478Z,36.88
2019-05-15T19:47:18.534Z,45.63
2019-05-15T19:49:48.584Z,31.10
2019-05-15T19:52:17.965Z,26.70
2019-05-15T19:54:48.501Z,32.63
2019-05-15T19:57:18.656Z,29.25
2019-05-15T19:59:48.831Z,20.65
2019-05-15T20:02:18.099Z,30.10
2019-05-15T20:04:48.973Z,38.53
2019-05-15T20:07:18.602Z,24.52
2019-05-15T20:09:47.797Z,27.87
2019-05-15T20:12:18.588Z,25.75
2019-05-15T20:14:48.837Z,25.10
2019-05-15T20:17:18.300Z,29.15
2019-05-15T20:19:48.824Z,21.65
2019-05-15T20:22:18.881Z,15.75
2019-05-15T20:24:47.977Z,23.15
2019-05-15T20:27:18.755Z,19.95
2019-05-15T20:29:48.723Z,28.62
2019-05-15T20:32:18.416Z,23.95
2019-05-15T20:34:48.335Z,23.73
2019-05-15T20:37:18.307Z,23.67
2019-05-15T20:39:49.249Z,21.75
2019-05-15T20:42:18.179Z,19.35
2019-05-15T20:44:48.554Z,23.95
2019-05-15T20:47:18.716Z,23.60
2019-05-15T20:49:48.592Z,25.12
2019-05-15T20:52:21.385Z,25.82
2019-05-15T20:54:48.262Z,28.90
2019-05-15T20:57:18.368Z,26.93
2019-05-15T20:59:48.092Z,22.05
2019-05-15T21:02:19.511Z,18.32
2019-05-15T21:04:48.427Z,28.62
2019-05-15T21:07:27.615Z,29.87
2019-05-15T21:09:48.337Z,24.43
2019-05-15T21:12:17.920Z,15.75
2019-05-15T21:14:48.404Z,24.92
2019-05-15T21:17:19.925Z,21.97
2019-05-15T21:19:49.428Z,18.23
2019-05-15T21:22:18.625Z,21.37
2019-05-15T21:24:47.703Z,19.52
2019-05-15T21:27:22.744Z,22.87
2019-05-15T21:29:49.668Z,18.67
2019-05-15T21:32:19.587Z,18.50
2019-05-15T21:34:49.433Z,20.62
2019-05-15T21:37:18.782Z,26.57
2019-05-15T21:39:48.536Z,20.17
2019-05-15T21:42:18.400Z,25.43
2019-05-15T21:44:48.872Z,14.78
2019-05-15T21:47:18.855Z,18.20
2019-05-15T21:49:48.312Z,28.55
2019-05-15T21:52:18.530Z,24.18
2019-05-15T21:54:50.503Z,25.08
2019-05-15T21:57:32.428Z,21.52
2019-05-15T21:59:49.516Z,22.05
2019-05-15T22:02:20.668Z,20.17
2019-05-15T22:04:55.776Z,17.12
2019-05-15T22:07:21.120Z,16.65
2019-05-15T22:09:50.063Z,24.12
2019-05-15T22:12:19.036Z,22.02
2019-05-15T22:14:49.169Z,23.02
2019-05-15T22:17:18.931Z,24.27
2019-05-15T22:19:49.107Z,23.27
2019-05-15T22:22:18.393Z,15.28
2019-05-15T22:24:48.365Z,25.82
2019-05-15T22:27:18.026Z,19.77
2019-05-15T22:29:48.775Z,18.92
2019-05-15T22:32:18.689Z,19.70
2019-05-15T22:34:48.084Z,17.27
2019-05-15T22:37:18.209Z,25.82
2019-05-15T22:39:48.424Z,23.70
2019-05-15T22:42:18.309Z,15.28
2019-05-15T22:44:47.803Z,20.37
2019-05-15T22:47:19.601Z,20.57
2019-05-15T22:49:48.526Z,13.88
2019-05-15T22:52:18.417Z,21.85
2019-05-15T22:54:48.012Z,19.85
2019-05-15T22:57:20.651Z,18.65
2019-05-15T22:59:49.569Z,16.87
2019-05-15T23:02:18.535Z,20.23
2019-05-15T23:04:48.229Z,18.73
2019-05-15T23:07:18.898Z,14.70
2019-05-15T23:09:49.004Z,17.42
2019-05-15T23:12:18.315Z,17.20
2019-05-15T23:14:48.505Z,15.63
2019-05-15T23:17:19.551Z,15.93
2019-05-15T23:19:48.669Z,20.55
2019-05-15T23:22:18.662Z,19.12
2019-05-15T23:24:47.998Z,17.70
2019-05-15T23:27:18.155Z,18.75
2019-05-15T23:29:48.994Z,18.73
2019-05-15T23:32:18.250Z,16.40
2019-05-15T23:34:49.115Z,15.25
2019-05-15T23:37:17.971Z,15.43
2019-05-15T23:39:48.667Z,15.63
2019-05-15T23:42:18.459Z,15.00
2019-05-15T23:44:48.673Z,15.05
2019-05-15T23:47:18.041Z,12.37
2019-05-15T23:49:48.539Z,16.52
2019-05-15T23:52:17.722Z,15.00
2019-05-15T23:54:46.643Z,11.22
2019-05-15T23:57:17.823Z,15.00
2019-05-15T23:59:47.758Z,12.07
